Time;durP1;ratioP1;P1;durP2;ratioP2;P2;SDS_P1;SDS_P2;PMS_P1;PMS_P2;Temp;Humidity;BMP_temperature;BMP_pressure;BME280_temperature;BME280_humidity;BME280_pressure;Samples;Min_cycle;Max_cycle;Signal;HPM_P1;HPM_P2
2023/10/26 00:02:16;;;;;;;7.53;4.63;;;10.30;99.90;;;;;;5057828;28;20044;-49
2023/10/26 00:04:42;;;;;;;7.65;4.30;;;10.20;99.90;;;;;;5057376;28;20044;-49
2023/10/26 00:07:08;;;;;;;7.97;4.90;;;10.30;99.90;;;;;;5057317;28;20091;-47
2023/10/26 00:09:33;;;;;;;9.02;4.90;;;10.30;99.90;;;;;;5057849;28;20059;-47
2023/10/26 00:11:59;;;;;;;8.30;5.13;;;10.30;99.90;;;;;;5056692;28;20491;-49
2023/10/26 00:14:24;;;;;;;7.55;4.75;;;10.30;99.90;;;;;;5057451;28;20051;-50
2023/10/26 00:16:50;;;;;;;6.07;4.35;;;10.40;99.90;;;;;;5057263;28;20037;-47
2023/10/26 00:19:16;;;;;;;8.23;4.45;;;10.40;99.90;;;;;;5057407;28;20119;-47
2023/10/26 00:21:41;;;;;;;8.82;4.43;;;10.40;99.90;;;;;;5057475;28;20063;-48
2023/10/26 00:24:08;;;;;;;8.38;5.20;;;10.40;99.90;;;;;;5057272;28;20362;-48
2023/10/26 00:26:34;;;;;;;9.73;4.93;;;10.40;99.90;;;;;;5057195;28;20063;-48
2023/10/26 00:28:59;;;;;;;8.68;4.93;;;10.30;99.90;;;;;;5057090;28;20373;-47
2023/10/26 00:31:25;;;;;;;9.43;4.93;;;10.30;99.90;;;;;;5057137;28;20021;-51
2023/10/26 00:33:50;;;;;;;7.07;4.63;;;10.30;99.90;;;;;;5057191;28;20168;-51
2023/10/26 00:36:16;;;;;;;10.25;5.10;;;10.30;99.90;;;;;;5057159;28;20037;-51
2023/10/26 00:38:42;;;;;;;7.70;4.60;;;10.40;99.90;;;;;;5056828;28;20028;-51
2023/10/26 00:41:07;;;;;;;9.18;4.70;;;10.40;99.90;;;;;;5056667;28;20059;-51
2023/10/26 00:43:33;;;;;;;8.13;4.60;;;10.40;99.90;;;;;;5056935;28;20056;-52
2023/10/26 00:45:59;;;;;;;8.68;4.88;;;10.40;99.90;;;;;;5055780;28;20025;-51
2023/10/26 00:48:25;;;;;;;6.10;4.25;;;10.40;99.90;;;;;;5055705;28;20041;-52
2023/10/26 00:50:50;;;;;;;8.55;4.40;;;10.50;99.90;;;;;;5055843;28;20477;-51
2023/10/26 00:53:16;;;;;;;7.95;4.60;;;10.40;99.90;;;;;;5056685;28;20086;-47
2023/10/26 00:55:42;;;;;;;9.23;4.85;;;10.50;99.90;;;;;;5055772;28;20359;-48
2023/10/26 00:58:08;;;;;;;8.88;4.60;;;10.50;99.90;;;;;;5056256;28;20420;-48
2023/10/26 01:00:33;;;;;;;7.60;4.47;;;10.50;99.90;;;;;;5055835;28;20086;-49
2023/10/26 01:02:59;;;;;;;7.97;4.57;;;10.50;99.90;;;;;;5055594;28;20454;-50
2023/10/26 01:05:25;;;;;;;6.85;4.43;;;10.50;99.90;;;;;;5038726;28;20037;-49
2023/10/26 01:07:50;;;;;;;9.15;4.45;;;10.50;99.90;;;;;;5056438;28;20360;-48
2023/10/26 01:10:16;;;;;;;7.80;4.50;;;10.50;99.90;;;;;;5055408;28;20371;-47
2023/10/26 01:12:42;;;;;;;7.70;4.32;;;10.50;99.90;;;;;;5056600;28;20475;-48
2023/10/26 01:15:07;;;;;;;6.80;3.85;;;10.50;99.90;;;;;;5056555;28;20500;-48
2023/10/26 01:17:36;;;;;;;7.38;3.65;;;10.50;99.90;;;;;;5056319;28;20036;-49
2023/10/26 01:20:04;;;;;;;7.47;4.25;;;10.60;99.90;;;;;;5056303;28;20064;-48
2023/10/26 01:22:30;;;;;;;7.25;4.20;;;10.60;99.90;;;;;;5055815;28;20032;-50
2023/10/26 01:24:56;;;;;;;10.60;4.55;;;10.60;99.90;;;;;;5056077;28;20540;-48
2023/10/26 01:27:22;;;;;;;7.38;3.78;;;10.70;99.90;;;;;;5056303;28;20048;-49
2023/10/26 01:29:47;;;;;;;5.60;3.70;;;10.70;99.90;;;;;;5056236;28;20343;-51
2023/10/26 01:32:13;;;;;;;6.43;4.07;;;10.70;99.90;;;;;;5056127;28;20517;-51
2023/10/26 01:34:39;;;;;;;5.90;3.70;;;10.70;99.90;;;;;;5055372;28;20021;-51
2023/10/26 01:37:05;;;;;;;6.70;3.78;;;10.70;99.90;;;;;;5055816;28;20035;-51
2023/10/26 01:39:31;;;;;;;7.50;3.72;;;10.70;99.90;;;;;;5055892;28;20037;-51
2023/10/26 01:41:57;;;;;;;6.72;3.47;;;10.70;99.90;;;;;;5055889;28;20037;-51
2023/10/26 01:44:23;;;;;;;6.75;3.80;;;10.70;99.90;;;;;;5054592;28;20090;-50
2023/10/26 01:46:48;;;;;;;6.60;3.30;;;10.70;99.90;;;;;;5055680;28;20170;-51
2023/10/26 01:49:14;;;;;;;6.20;3.03;;;10.70;99.90;;;;;;5055846;28;20303;-51
2023/10/26 01:51:39;;;;;;;4.95;2.90;;;10.70;99.90;;;;;;5055768;28;20537;-51
2023/10/26 01:54:05;;;;;;;6.03;3.20;;;10.70;99.90;;;;;;5055683;28;20056;-51
2023/10/26 01:56:31;;;;;;;5.80;2.90;;;10.70;99.90;;;;;;5055540;28;20045;-51
2023/10/26 01:58:57;;;;;;;6.07;2.90;;;10.70;99.90;;;;;;5055712;28;20090;-50
2023/10/26 02:01:24;;;;;;;5.13;2.65;;;10.70;99.90;;;;;;5055148;28;20060;-50
2023/10/26 02:03:50;;;;;;;5.10;2.80;;;10.70;99.90;;;;;;5055500;28;20076;-52
2023/10/26 02:06:15;;;;;;;4.25;2.60;;;10.60;99.90;;;;;;5055164;28;20077;-51
2023/10/26 02:08:41;;;;;;;4.25;2.63;;;10.60;99.90;;;;;;5037887;28;20090;-48
2023/10/26 02:11:07;;;;;;;3.63;2.42;;;10.60;99.90;;;;;;5055471;28;20063;-47
2023/10/26 02:13:35;;;;;;;6.75;3.10;;;10.60;99.90;;;;;;5055286;28;20450;-47
2023/10/26 02:16:01;;;;;;;7.30;3.45;;;10.60;99.90;;;;;;5053904;28;20477;-51
2023/10/26 02:18:28;;;;;;;5.25;3.30;;;10.50;99.90;;;;;;5055174;28;20430;-50
2023/10/26 02:20:54;;;;;;;6.43;2.90;;;10.50;99.90;;;;;;5053973;28;20029;-51
2023/10/26 02:23:21;;;;;;;5.07;2.85;;;10.50;99.90;;;;;;5055373;28;20036;-51
2023/10/26 02:25:47;;;;;;;5.63;2.97;;;10.50;99.90;;;;;;5055156;28;20041;-50
2023/10/26 02:28:15;;;;;;;6.35;3.38;;;10.50;99.90;;;;;;5055164;28;20400;-50
2023/10/26 02:30:42;;;;;;;4.43;3.03;;;10.50;99.90;;;;;;5054821;28;20366;-51
2023/10/26 02:33:08;;;;;;;5.13;3.05;;;10.50;99.90;;;;;;5054814;28;20029;-51
2023/10/26 02:35:34;;;;;;;8.18;3.05;;;10.50;99.90;;;;;;5055264;28;20366;-51
2023/10/26 02:37:59;;;;;;;5.07;3.40;;;10.50;99.90;;;;;;5054923;28;20036;-51
2023/10/26 02:40:25;;;;;;;7.55;3.25;;;10.50;99.90;;;;;;5055107;28;20430;-51
2023/10/26 02:42:51;;;;;;;6.65;3.35;;;10.50;99.90;;;;;;5054968;28;20116;-51
2023/10/26 02:45:16;;;;;;;4.43;2.88;;;10.50;99.90;;;;;;5055044;28;20071;-51
2023/10/26 02:47:42;;;;;;;5.68;3.10;;;10.50;99.90;;;;;;5054362;28;20098;-50
2023/10/26 02:50:08;;;;;;;7.28;3.33;;;10.60;99.90;;;;;;5054848;28;20055;-51
2023/10/26 02:52:33;;;;;;;5.95;3.10;;;10.50;99.90;;;;;;5055037;28;20124;-51
2023/10/26 02:54:59;;;;;;;5.05;3.30;;;10.60;99.90;;;;;;5054752;28;20117;-48
2023/10/26 02:57:25;;;;;;;6.63;3.30;;;10.60;99.90;;;;;;5054710;28;20033;-50
2023/10/26 02:59:51;;;;;;;6.75;2.90;;;10.60;99.90;;;;;;5054794;28;20104;-50
2023/10/26 03:02:16;;;;;;;6.95;3.00;;;10.60;99.90;;;;;;5053646;28;20044;-51
2023/10/26 03:04:42;;;;;;;4.45;2.70;;;10.60;99.90;;;;;;5053671;28;20025;-49
2023/10/26 03:07:10;;;;;;;5.72;2.83;;;10.50;99.90;;;;;;5054409;28;20049;-50
2023/10/26 03:09:36;;;;;;;5.63;3.00;;;10.60;99.90;;;;;;5054670;28;20063;-51
2023/10/26 03:12:02;;;;;;;8.02;3.22;;;10.60;99.90;;;;;;5054540;28;20025;-47
2023/10/26 03:14:28;;;;;;;4.78;3.22;;;10.60;99.90;;;;;;5053294;28;20045;-47
2023/10/26 03:16:53;;;;;;;6.50;3.17;;;10.60;99.90;;;;;;5054483;28;20056;-48
2023/10/26 03:19:19;;;;;;;4.45;3.25;;;10.60;99.90;;;;;;5054498;28;20118;-47
2023/10/26 03:21:45;;;;;;;9.43;3.13;;;10.60;99.90;;;;;;5054607;28;20052;-47
2023/10/26 03:24:10;;;;;;;5.43;3.60;;;10.60;99.90;;;;;;5054574;28;20043;-48
2023/10/26 03:26:36;;;;;;;5.63;3.63;;;10.60;99.90;;;;;;5053461;28;20033;-46
2023/10/26 03:29:02;;;;;;;7.75;3.78;;;10.60;99.90;;;;;;5054298;28;20029;-47
2023/10/26 03:31:28;;;;;;;8.52;4.18;;;10.70;99.90;;;;;;5054473;28;20365;-48
2023/10/26 03:33:53;;;;;;;8.57;5.72;;;10.70;99.90;;;;;;5053930;28;20025;-49
2023/10/26 03:36:19;;;;;;;9.57;6.07;;;10.70;99.90;;;;;;5054062;28;20095;-50
2023/10/26 03:38:46;;;;;;;8.45;5.15;;;10.70;99.90;;;;;;5054332;28;20040;-51
2023/10/26 03:41:12;;;;;;;7.95;4.88;;;10.70;99.90;;;;;;5054234;28;20036;-49
2023/10/26 03:43:37;;;;;;;8.32;4.85;;;10.80;99.90;;;;;;5054326;28;20040;-50
2023/10/26 03:46:04;;;;;;;8.15;4.60;;;10.80;99.90;;;;;;5054977;28;20336;-50
2023/10/26 03:48:31;;;;;;;8.25;4.47;;;10.70;99.90;;;;;;5058013;28;20033;-50
2023/10/26 03:50:57;;;;;;;9.80;6.00;;;10.70;99.90;;;;;;5058007;28;20037;-51
2023/10/26 03:53:22;;;;;;;11.10;5.70;;;10.70;99.90;;;;;;5057971;28;20382;-50
2023/10/26 03:55:48;;;;;;;10.82;6.20;;;10.80;99.90;;;;;;5057915;28;20071;-50
2023/10/26 03:58:15;;;;;;;11.25;5.53;;;10.80;99.90;;;;;;5057890;28;20045;-49
2023/10/26 04:00:41;;;;;;;7.43;4.45;;;10.80;99.90;;;;;;5040083;28;20120;-50
2023/10/26 04:03:06;;;;;;;9.07;5.00;;;10.90;99.90;;;;;;5057689;28;20065;-51
2023/10/26 04:05:32;;;;;;;8.68;4.68;;;10.90;99.90;;;;;;5057686;28;20029;-50
2023/10/26 04:08:00;;;;;;;9.77;5.15;;;10.90;99.90;;;;;;5056481;28;20044;-50
2023/10/26 04:10:26;;;;;;;8.05;4.80;;;10.80;99.90;;;;;;5057563;28;20029;-50
2023/10/26 04:12:52;;;;;;;8.52;5.10;;;10.90;99.90;;;;;;5057291;28;20116;-50
2023/10/26 04:15:18;;;;;;;10.68;6.28;;;10.80;99.90;;;;;;5057627;28;20036;-50
2023/10/26 04:17:43;;;;;;;9.77;5.55;;;10.90;99.90;;;;;;5057469;28;20060;-50
2023/10/26 04:20:10;;;;;;;13.98;6.60;;;10.90;99.90;;;;;;5057756;28;20105;-50
2023/10/26 04:22:36;;;;;;;10.20;6.07;;;10.90;99.90;;;;;;5057439;28;20090;-50
2023/10/26 04:25:02;;;;;;;15.50;6.03;;;10.90;99.90;;;;;;5057236;28;20071;-51
2023/10/26 04:27:28;;;;;;;10.60;5.65;;;10.90;99.90;;;;;;5057251;28;20039;-51
2023/10/26 04:29:53;;;;;;;9.45;5.40;;;10.90;99.90;;;;;;5057234;28;20096;-48
2023/10/26 04:32:19;;;;;;;10.38;5.43;;;10.90;99.90;;;;;;5056845;28;20028;-49
2023/10/26 04:34:45;;;;;;;11.05;5.40;;;10.90;99.90;;;;;;5056905;28;20517;-50
2023/10/26 04:37:11;;;;;;;7.85;5.15;;;10.90;99.90;;;;;;5055834;28;20071;-49
2023/10/26 04:39:36;;;;;;;8.70;4.85;;;10.90;99.90;;;;;;5057020;28;20025;-49
2023/10/26 04:42:03;;;;;;;7.13;4.53;;;10.80;99.90;;;;;;5056991;28;20412;-51
2023/10/26 04:44:30;;;;;;;6.82;4.15;;;10.80;99.90;;;;;;5056904;28;20060;-51
2023/10/26 04:46:55;;;;;;;6.25;3.70;;;10.90;99.90;;;;;;5056809;28;20120;-50
2023/10/26 04:49:21;;;;;;;5.85;3.67;;;10.90;99.90;;;;;;5056800;28;20071;-51
2023/10/26 04:51:46;;;;;;;6.68;3.83;;;10.90;99.90;;;;;;5056856;28;20068;-51
2023/10/26 04:54:12;;;;;;;5.60;3.30;;;10.90;99.90;;;;;;5056892;28;20052;-50
2023/10/26 04:56:38;;;;;;;5.80;3.38;;;10.90;99.90;;;;;;5055829;28;20036;-51
2023/10/26 04:59:03;;;;;;;4.40;3.10;;;11.00;99.90;;;;;;5056185;28;20033;-50
2023/10/26 05:01:29;;;;;;;5.40;3.25;;;11.00;99.90;;;;;;5056597;28;20028;-51
2023/10/26 05:03:55;;;;;;;4.85;3.17;;;11.00;99.90;;;;;;5056492;28;20029;-50
2023/10/26 05:06:20;;;;;;;4.55;2.83;;;11.00;99.90;;;;;;5055894;28;20421;-51
2023/10/26 05:08:46;;;;;;;5.55;2.78;;;11.00;99.90;;;;;;5055765;28;20036;-51
2023/10/26 05:11:12;;;;;;;5.80;2.90;;;11.00;99.90;;;;;;5056440;28;20028;-51
2023/10/26 05:13:38;;;;;;;5.70;3.45;;;11.00;99.90;;;;;;5056412;28;20040;-51
2023/10/26 05:16:04;;;;;;;4.88;3.00;;;11.00;99.90;;;;;;5056413;28;20036;-51
2023/10/26 05:18:30;;;;;;;5.13;3.00;;;11.00;99.90;;;;;;5056254;28;20347;-51
2023/10/26 05:20:56;;;;;;;5.25;2.90;;;11.00;99.90;;;;;;5055953;28;20045;-50
2023/10/26 05:23:21;;;;;;;5.68;3.28;;;11.00;99.90;;;;;;5054821;28;20465;-48
2023/10/26 05:25:48;;;;;;;5.60;3.50;;;11.00;99.90;;;;;;5056909;28;20120;-48
2023/10/26 05:28:13;;;;;;;5.22;2.70;;;10.90;99.90;;;;;;5056204;28;20083;-48
2023/10/26 05:30:39;;;;;;;5.20;3.38;;;11.00;99.90;;;;;;5055911;28;20067;-46
2023/10/26 05:33:04;;;;;;;6.22;3.10;;;11.00;99.90;;;;;;5056049;28;20040;-46
2023/10/26 05:35:30;;;;;;;5.35;3.40;;;11.00;99.90;;;;;;5054715;28;20036;-46
2023/10/26 05:37:56;;;;;;;5.85;3.13;;;11.10;99.90;;;;;;5054729;28;20025;-48
2023/10/26 05:40:21;;;;;;;6.43;3.35;;;11.10;99.90;;;;;;5055815;28;20103;-49
2023/10/26 05:42:47;;;;;;;5.95;3.60;;;11.10;99.90;;;;;;5055723;28;20077;-50
2023/10/26 05:45:13;;;;;;;6.63;3.20;;;11.10;99.90;;;;;;5055595;28;20040;-49
2023/10/26 05:47:39;;;;;;;4.50;2.80;;;11.10;99.90;;;;;;5054734;28;20040;-50
2023/10/26 05:50:05;;;;;;;5.20;3.08;;;11.10;99.90;;;;;;5055902;28;20029;-47
2023/10/26 05:52:31;;;;;;;6.13;3.60;;;11.10;99.90;;;;;;5055147;28;20524;-50
2023/10/26 05:54:56;;;;;;;5.72;3.35;;;11.10;99.90;;;;;;5055517;28;20033;-50
2023/10/26 05:57:22;;;;;;;4.70;2.65;;;11.20;99.90;;;;;;5055351;28;20029;-49
2023/10/26 05:59:48;;;;;;;6.57;2.95;;;11.10;99.90;;;;;;5055611;28;20370;-50
2023/10/26 06:02:13;;;;;;;4.45;2.45;;;11.10;99.90;;;;;;5055556;28;20115;-49
2023/10/26 06:04:39;;;;;;;5.35;2.70;;;11.20;99.90;;;;;;5055230;28;20061;-49
2023/10/26 06:07:04;;;;;;;15.48;6.68;;;11.20;99.90;;;;;;5055112;28;20053;-50
2023/10/26 06:09:30;;;;;;;6.28;3.13;;;11.20;99.90;;;;;;5055163;28;20366;-50
2023/10/26 06:11:56;;;;;;;5.90;3.00;;;11.20;99.90;;;;;;5055453;28;20060;-47
2023/10/26 06:14:22;;;;;;;5.40;2.50;;;11.20;99.90;;;;;;5054841;28;20061;-49
2023/10/26 06:16:47;;;;;;;4.68;2.65;;;11.20;99.90;;;;;;5054971;28;20044;-50
2023/10/26 06:19:13;;;;;;;4.80;2.70;;;11.20;99.90;;;;;;5054919;28;20040;-50
2023/10/26 06:21:39;;;;;;;4.25;2.70;;;11.30;99.90;;;;;;5054920;28;20032;-51
2023/10/26 06:24:05;;;;;;;5.82;3.30;;;11.20;99.90;;;;;;5054933;28;20037;-50
2023/10/26 06:26:31;;;;;;;3.95;2.45;;;11.30;99.90;;;;;;5053385;28;20036;-49
2023/10/26 06:28:57;;;;;;;5.20;3.70;;;11.20;99.90;;;;;;5054646;28;20143;-50
2023/10/26 06:31:22;;;;;;;5.05;2.60;;;11.20;99.90;;;;;;5053613;28;20033;-51
2023/10/26 06:33:48;;;;;;;5.88;2.30;;;11.20;99.90;;;;;;5054950;28;20040;-49
2023/10/26 06:36:14;;;;;;;4.93;2.47;;;11.20;99.90;;;;;;5054330;28;20025;-50
2023/10/26 06:38:39;;;;;;;4.22;2.50;;;11.20;99.90;;;;;;5054559;28;20033;-49
2023/10/26 06:41:06;;;;;;;5.85;2.22;;;11.20;99.90;;;;;;5054636;28;20093;-51
2023/10/26 06:43:32;;;;;;;3.90;2.30;;;11.20;99.90;;;;;;5054611;28;20033;-50
2023/10/26 06:45:59;;;;;;;3.28;2.05;;;11.20;99.90;;;;;;5053365;28;20044;-48
2023/10/26 06:48:25;;;;;;;3.30;2.22;;;11.20;99.90;;;;;;5054718;28;20029;-49
2023/10/26 06:51:05;;;;;;;5.43;2.50;;;11.20;99.90;;;;;;5054465;28;20033;-50
2023/10/26 06:53:31;;;;;;;3.47;2.17;;;11.20;99.90;;;;;;5053559;28;20509;-50
2023/10/26 06:55:57;;;;;;;4.47;2.53;;;11.20;99.90;;;;;;5054369;28;20041;-50
2023/10/26 06:58:23;;;;;;;3.60;2.25;;;11.10;99.90;;;;;;5054044;28;20047;-50
2023/10/26 07:00:48;;;;;;;4.53;2.50;;;11.10;99.90;;;;;;5054485;28;20032;-51
2023/10/26 07:03:14;;;;;;;4.35;2.40;;;11.10;99.90;;;;;;5054332;28;20033;-50
2023/10/26 07:05:40;;;;;;;5.18;2.92;;;11.10;99.90;;;;;;5054072;28;20047;-50
2023/10/26 07:08:06;;;;;;;5.55;2.45;;;11.20;99.90;;;;;;5054672;28;20377;-50
2023/10/26 07:10:32;;;;;;;4.53;2.47;;;11.20;99.90;;;;;;5054401;28;20212;-50
2023/10/26 07:12:57;;;;;;;3.80;2.28;;;11.20;99.90;;;;;;5054220;28;20029;-52
2023/10/26 07:15:23;;;;;;;4.40;2.50;;;11.20;99.90;;;;;;5054366;28;20471;-50
2023/10/26 07:17:49;;;;;;;4.20;2.60;;;11.20;99.90;;;;;;5054477;28;20036;-50
2023/10/26 07:20:14;;;;;;;4.82;2.72;;;11.20;99.90;;;;;;5054995;28;20503;-50
2023/10/26 07:22:40;;;;;;;3.85;2.35;;;11.30;99.90;;;;;;5058291;28;20154;-50
2023/10/26 07:25:06;;;;;;;4.30;2.33;;;11.30;99.90;;;;;;5058194;28;20056;-51
2023/10/26 07:27:32;;;;;;;4.70;2.50;;;11.30;99.90;;;;;;5058142;28;20028;-50
2023/10/26 07:30:01;;;;;;;5.28;3.00;;;11.30;99.90;;;;;;5058012;28;20025;-50
2023/10/26 07:32:26;;;;;;;4.82;2.88;;;11.20;99.90;;;;;;5058017;28;20099;-51
2023/10/26 07:34:54;;;;;;;5.22;3.45;;;11.20;99.90;;;;;;5058034;28;20029;-50
2023/10/26 07:37:19;;;;;;;7.22;3.85;;;11.20;99.90;;;;;;5057938;28;20033;-51
2023/10/26 07:39:45;;;;;;;11.93;6.15;;;11.20;99.90;;;;;;5058207;28;20040;-50
2023/10/26 07:42:11;;;;;;;13.82;6.97;;;11.20;99.90;;;;;;5057849;28;20025;-50
2023/10/26 07:44:38;;;;;;;12.82;7.43;;;11.20;99.90;;;;;;5057665;28;20044;-50
2023/10/26 07:47:08;;;;;;;12.82;6.28;;;11.20;99.90;;;;;;5056361;28;20052;-51
2023/10/26 07:49:34;;;;;;;9.38;5.50;;;11.30;99.90;;;;;;5056445;28;20025;-50
2023/10/26 07:51:59;;;;;;;5.93;4.05;;;11.30;99.90;;;;;;5057573;28;20473;-48
2023/10/26 07:54:25;;;;;;;5.07;2.85;;;11.30;99.90;;;;;;5057610;28;20104;-47
2023/10/26 07:56:51;;;;;;;5.60;3.45;;;11.40;99.90;;;;;;5057158;28;20032;-48
2023/10/26 07:59:17;;;;;;;3.50;2.10;;;11.40;99.90;;;;;;5057346;28;20044;-47
2023/10/26 08:01:42;;;;;;;4.28;2.20;;;11.50;99.90;;;;;;5057059;28;20037;-50
2023/10/26 08:04:08;;;;;;;3.58;2.33;;;11.50;99.90;;;;;;5057362;28;20060;-49
2023/10/26 08:06:33;;;;;;;4.53;2.50;;;11.50;99.90;;;;;;5056867;28;20143;-47
2023/10/26 08:08:59;;;;;;;5.30;2.30;;;11.60;99.90;;;;;;5057484;28;20035;-48
2023/10/26 08:11:25;;;;;;;6.45;3.28;;;11.60;99.90;;;;;;5057013;28;20029;-50
2023/10/26 08:13:51;;;;;;;6.07;2.80;;;11.70;99.90;;;;;;5057088;28;20032;-50
2023/10/26 08:16:16;;;;;;;6.72;3.28;;;11.70;99.90;;;;;;5057318;28;20430;-49
2023/10/26 08:18:42;;;;;;;5.35;2.65;;;11.70;99.90;;;;;;5056051;28;20025;-54
2023/10/26 08:21:08;;;;;;;5.28;2.78;;;11.80;99.90;;;;;;5056650;28;20065;-49
2023/10/26 08:23:34;;;;;;;4.82;2.70;;;11.80;99.90;;;;;;5055974;28;20376;-48
2023/10/26 08:26:08;;;;;;;5.20;2.60;;;11.80;99.90;;;;;;5056939;28;20029;-50
2023/10/26 08:28:34;;;;;;;5.75;2.85;;;11.90;99.90;;;;;;5056828;28;20040;-53
2023/10/26 08:31:02;;;;;;;4.97;2.60;;;11.90;99.90;;;;;;5056337;28;20044;-52
2023/10/26 08:33:31;;;;;;;7.65;3.03;;;11.80;99.90;;;;;;5056810;28;20029;-51
2023/10/26 08:35:57;;;;;;;7.03;3.00;;;11.80;99.90;;;;;;5056719;28;20094;-49
2023/10/26 08:38:23;;;;;;;6.20;3.20;;;11.80;99.90;;;;;;5056333;28;20044;-50
2023/10/26 08:40:52;;;;;;;6.78;3.20;;;11.90;99.90;;;;;;5056590;28;20037;-50
2023/10/26 08:43:18;;;;;;;5.50;3.85;;;12.60;99.90;;;;;;5056252;28;20044;-51
2023/10/26 08:45:45;;;;;;;6.43;3.65;;;12.70;99.90;;;;;;5056376;28;20434;-51
2023/10/26 08:48:18;;;;;;;5.20;3.88;;;12.70;99.90;;;;;;5056605;28;20100;-50
2023/10/26 08:50:45;;;;;;;6.22;3.30;;;12.70;99.90;;;;;;5055179;28;20465;-53
2023/10/26 08:53:10;;;;;;;5.25;3.28;;;12.70;99.90;;;;;;5056431;28;20033;-50
2023/10/26 08:55:40;;;;;;;5.88;3.40;;;12.90;99.90;;;;;;5056490;28;20104;-50
2023/10/26 08:58:06;;;;;;;4.15;2.90;;;13.10;99.90;;;;;;5056363;28;20041;-49
2023/10/26 09:00:32;;;;;;;8.68;3.85;;;13.20;99.90;;;;;;5056021;28;20098;-51
2023/10/26 09:02:57;;;;;;;5.10;3.53;;;13.30;99.90;;;;;;5056060;28;20037;-50
2023/10/26 09:05:23;;;;;;;4.65;2.13;;;13.20;99.90;;;;;;5056451;28;20052;-51
2023/10/26 09:07:51;;;;;;;5.13;2.08;;;13.10;99.90;;;;;;5055228;28;20055;-50
2023/10/26 09:10:32;;;;;;;4.63;1.88;;;13.10;99.90;;;;;;5056394;28;20021;-48
2023/10/26 09:13:03;;;;;;;4.38;2.00;;;13.20;99.90;;;;;;5056010;28;20033;-51
2023/10/26 09:15:29;;;;;;;3.55;1.80;;;13.40;99.90;;;;;;5055758;28;20492;-51
2023/10/26 09:18:00;;;;;;;4.43;1.73;;;13.50;99.90;;;;;;5056195;28;20045;-51
2023/10/26 09:20:26;;;;;;;4.18;1.50;;;13.80;99.90;;;;;;5056168;28;20040;-50
2023/10/26 09:22:51;;;;;;;2.80;1.25;;;13.90;99.90;;;;;;5056069;28;20029;-48
2023/10/26 09:25:17;;;;;;;4.95;1.60;;;13.70;99.90;;;;;;5055780;28;20608;-51
2023/10/26 09:27:44;;;;;;;4.57;1.75;;;13.50;99.90;;;;;;5055939;28;20025;-50
2023/10/26 09:30:22;;;;;;;4.93;1.77;;;13.40;99.90;;;;;;5054532;28;20029;-50
2023/10/26 09:32:48;;;;;;;5.57;1.75;;;13.30;99.90;;;;;;5055295;28;20021;-51
2023/10/26 09:35:34;;;;;;;3.15;1.38;;;13.30;99.90;;;;;;5055472;28;20334;-51
2023/10/26 09:38:00;;;;;;;5.45;1.73;;;13.20;99.90;;;;;;5055552;28;20362;-50
2023/10/26 09:40:26;;;;;;;9.80;2.40;;;13.30;99.90;;;;;;5054736;28;20033;-51
2023/10/26 09:42:52;;;;;;;4.72;1.48;;;13.50;99.90;;;;;;5055036;28;20036;-50
2023/10/26 09:45:18;;;;;;;4.47;1.50;;;13.60;99.90;;;;;;5055334;28;20033;-50
2023/10/26 09:47:45;;;;;;;6.18;1.50;;;13.70;99.90;;;;;;5055175;28;20036;-51
2023/10/26 09:50:10;;;;;;;8.63;2.72;;;13.90;99.90;;;;;;5054864;28;20052;-51
2023/10/26 09:52:36;;;;;;;8.82;3.13;;;14.40;99.90;;;;;;5055250;28;20029;-51
2023/10/26 09:55:03;;;;;;;4.95;2.35;;;14.70;99.90;;;;;;5037581;28;20053;-51
2023/10/26 09:57:34;;;;;;;7.07;2.17;;;15.80;99.90;;;;;;5053971;28;20041;-51
2023/10/26 10:00:00;;;;;;;4.40;1.52;;;16.00;99.90;;;;;;5054179;28;20090;-52
2023/10/26 10:02:26;;;;;;;4.55;1.95;;;15.80;99.90;;;;;;5053869;28;20425;-53
2023/10/26 10:04:51;;;;;;;5.28;1.63;;;15.70;99.90;;;;;;5054022;28;20025;-51
2023/10/26 10:07:17;;;;;;;5.65;1.70;;;16.00;99.90;;;;;;5053917;28;20049;-48
2023/10/26 10:10:05;;;;;;;3.42;1.00;;;16.40;99.90;;;;;;5053142;28;20033;-47
2023/10/26 10:12:32;;;;;;;4.10;1.20;;;17.40;99.90;;;;;;5053671;28;20410;-52
2023/10/26 10:15:01;;;;;;;3.35;0.88;;;18.50;99.90;;;;;;5053653;28;20053;-49
2023/10/26 10:17:44;;;;;;;2.23;0.73;;;18.80;99.90;;;;;;5054240;28;20029;-49
2023/10/26 10:20:22;;;;;;;5.30;0.95;;;18.80;99.90;;;;;;5053616;28;20037;-50
2023/10/26 10:22:48;;;;;;;2.83;0.98;;;19.10;99.90;;;;;;5053988;28;20037;-49
2023/10/26 10:25:17;;;;;;;5.68;1.23;;;19.40;99.90;;;;;;5053675;28;20068;-53
2023/10/26 10:27:49;;;;;;;7.65;1.27;;;19.60;99.90;;;;;;5052801;28;20086;-49
2023/10/26 10:30:18;;;;;;;6.57;1.35;;;19.60;99.90;;;;;;5053630;28;20055;-50
2023/10/26 10:32:50;;;;;;;5.40;1.30;;;19.50;99.90;;;;;;5036319;28;20028;-48
2023/10/26 10:35:22;;;;;;;7.88;1.38;;;19.70;99.90;;;;;;5053804;28;20045;-52
2023/10/26 10:38:16;;;;;;;5.68;1.08;;;19.10;99.90;;;;;;5053378;28;20036;-51
2023/10/26 10:41:02;;;;;;;5.18;1.00;;;19.10;99.90;;;;;;5052364;28;20091;-48
2023/10/26 10:43:37;;;;;;;7.53;1.52;;;19.10;99.90;;;;;;5053118;28;20041;-49
2023/10/26 10:46:16;;;;;;;5.30;1.27;;;19.40;99.90;;;;;;5053598;28;20128;-52
2023/10/26 10:49:03;;;;;;;5.10;1.45;;;19.80;99.90;;;;;;5053142;28;20077;-51
2023/10/26 10:51:36;;;;;;;7.63;1.40;;;20.20;99.90;;;;;;5052872;28;20460;-51
2023/10/26 10:54:09;;;;;;;5.28;1.27;;;20.40;99.90;;;;;;5053158;28;20135;-50
2023/10/26 10:56:46;;;;;;;6.35;1.50;;;21.00;99.20;;;;;;5051801;28;20036;-50
2023/10/26 10:59:19;;;;;;;8.30;2.08;;;20.90;99.70;;;;;;5053092;28;20044;-53
2023/10/26 11:01:46;;;;;;;3.67;1.35;;;20.60;99.90;;;;;;5053212;28;20056;-53
2023/10/26 11:04:15;;;;;;;8.30;1.67;;;20.40;99.90;;;;;;5053280;28;20103;-53
2023/10/26 11:06:47;;;;;;;8.10;1.87;;;21.10;97.10;;;;;;5012675;28;1167413;-53
2023/10/26 11:09:38;;;;;;;5.60;2.03;;;21.40;93.90;;;;;;5052996;28;20037;-51
2023/10/26 11:12:11;;;;;;;9.63;1.98;;;21.30;94.50;;;;;;5054008;28;20057;-49
2023/10/26 11:14:46;;;;;;;16.17;6.22;;;21.30;92.80;;;;;;5053237;28;20112;-50
2023/10/26 11:17:11;;;;;;;7.38;1.65;;;20.90;95.30;;;;;;5037551;28;20049;-52
2023/10/26 11:19:37;;;;;;;8.18;1.30;;;20.00;99.60;;;;;;5035937;28;20060;-51
2023/10/26 11:22:04;;;;;;;8.60;1.75;;;18.40;99.90;;;;;;5053715;28;20044;-50
2023/10/26 11:24:32;;;;;;;14.32;2.05;;;18.00;99.90;;;;;;5053509;28;20117;-50
2023/10/26 11:27:07;;;;;;;8.18;1.85;;;18.90;99.90;;;;;;5053587;28;20043;-50
2023/10/26 11:29:33;;;;;;;9.02;1.90;;;18.50;99.90;;;;;;5053732;28;20045;-50
2023/10/26 11:31:59;;;;;;;11.38;2.08;;;17.50;99.90;;;;;;5053735;28;20442;-51
2023/10/26 11:34:27;;;;;;;10.65;2.28;;;16.70;99.90;;;;;;5052472;28;20037;-50
2023/10/26 11:36:53;;;;;;;7.65;1.95;;;16.40;99.90;;;;;;5053608;28;20090;-50
2023/10/26 11:39:18;;;;;;;9.80;1.92;;;16.00;99.90;;;;;;5053444;28;20040;-53
2023/10/26 11:41:54;;;;;;;5.38;1.70;;;15.70;99.90;;;;;;5053884;28;20040;-52
2023/10/26 11:44:26;;;;;;;9.18;1.80;;;15.40;99.90;;;;;;5052435;28;20469;-51
2023/10/26 11:46:59;;;;;;;9.13;1.60;;;15.20;99.90;;;;;;5053340;28;20033;-52
2023/10/26 11:49:41;;;;;;;11.07;2.13;;;15.10;99.90;;;;;;5052934;28;20355;-52
2023/10/26 11:52:07;;;;;;;9.15;2.28;;;15.00;99.90;;;;;;5053739;28;20033;-52
2023/10/26 11:54:33;;;;;;;12.73;2.17;;;14.90;99.90;;;;;;5053573;28;20091;-53
2023/10/26 11:56:58;;;;;;;13.55;3.75;;;14.80;99.90;;;;;;5053442;28;20477;-52
2023/10/26 11:59:24;;;;;;;12.93;3.85;;;14.50;99.90;;;;;;5053535;28;20029;-52
2023/10/26 12:01:50;;;;;;;7.18;2.55;;;14.20;99.90;;;;;;5053856;28;20037;-52
2023/10/26 12:04:15;;;;;;;10.27;2.38;;;14.00;99.90;;;;;;5052140;28;20091;-52
2023/10/26 12:06:41;;;;;;;8.35;3.83;;;14.00;99.90;;;;;;5053932;28;20056;-51
2023/10/26 12:09:07;;;;;;;30.73;13.43;;;13.80;99.90;;;;;;5056956;28;20025;-52
2023/10/26 12:11:33;;;;;;;5.28;2.00;;;13.70;99.90;;;;;;5057038;28;20040;-48
2023/10/26 12:13:58;;;;;;;3.90;1.48;;;13.90;99.90;;;;;;5055944;28;20025;-49
2023/10/26 12:16:24;;;;;;;6.57;1.10;;;13.90;99.90;;;;;;5055420;28;20036;-48
2023/10/26 12:18:51;;;;;;;4.82;1.65;;;13.90;99.90;;;;;;5056692;28;20139;-48
2023/10/26 12:21:17;;;;;;;3.22;0.90;;;14.30;99.90;;;;;;5056602;28;20043;-48
2023/10/26 12:23:42;;;;;;;4.05;1.10;;;15.40;99.90;;;;;;5056972;28;20111;-48
2023/10/26 12:26:08;;;;;;;5.57;1.35;;;16.00;99.90;;;;;;5056501;28;20049;-49
2023/10/26 12:28:34;;;;;;;4.90;2.47;;;16.30;99.90;;;;;;5056530;28;20512;-52
2023/10/26 12:30:59;;;;;;;12.40;8.93;;;17.00;99.90;;;;;;5056908;28;20037;-48
2023/10/26 12:33:27;;;;;;;2.85;1.23;;;16.60;99.90;;;;;;5056527;28;20033;-52
2023/10/26 12:35:53;;;;;;;2.35;1.08;;;16.10;99.90;;;;;;5056444;28;20470;-51
2023/10/26 12:38:22;;;;;;;1.95;0.77;;;16.10;99.90;;;;;;5055011;28;20156;-52
2023/10/26 12:40:48;;;;;;;2.70;1.38;;;16.30;99.90;;;;;;5056776;28;20051;-52
2023/10/26 12:43:14;;;;;;;6.10;3.88;;;16.00;99.90;;;;;;5056871;28;20036;-53
2023/10/26 12:45:39;;;;;;;1.88;0.80;;;16.00;99.90;;;;;;5056312;28;20112;-50